Time;durP1;ratioP1;P1;durP2;ratioP2;P2;SDS_P1;SDS_P2;PMS_P1;PMS_P2;Temp;Humidity;BMP_temperature;BMP_pressure;BME280_temperature;BME280_humidity;BME280_pressure;Samples;Min_cycle;Max_cycle;Signal;HPM_P1;HPM_P2
2021/01/16 00:01:01;;;;;;;10.38;6.33;;;;;;;-2.40;88.58;101491.20;1607810;87;21735;-76
2021/01/16 00:03:27;;;;;;;10.70;6.33;;;;;;;-2.39;88.49;101486.21;1608882;87;26816;-76
2021/01/16 00:06:00;;;;;;;9.78;5.47;;;;;;;-2.35;88.55;101487.23;1606701;87;21706;-76
2021/01/16 00:08:28;;;;;;;9.23;6.20;;;;;;;-2.35;88.48;101484.70;1595173;87;21224;-76
2021/01/16 00:10:58;;;;;;;9.20;5.08;;;;;;;-2.35;88.49;101489.38;1612051;87;21206;-76
2021/01/16 00:13:29;;;;;;;9.43;6.08;;;;;;;-2.33;88.51;101486.91;1614084;87;21259;-76
2021/01/16 00:15:56;;;;;;;14.25;6.95;;;;;;;-2.34;88.47;101487.70;1612945;87;21485;-76
2021/01/16 00:18:23;;;;;;;;;;;;;;;-2.38;88.51;101470.63;1602430;87;21267;-75
2021/01/16 00:20:56;;;;;;;9.10;6.10;;;;;;;-2.31;88.51;101487.86;1605709;86;20323;-75
2021/01/16 00:23:25;;;;;;;12.58;6.62;;;;;;;-2.30;88.50;101488.73;1600284;88;21229;-76
2021/01/16 00:25:52;;;;;;;11.03;6.03;;;;;;;-2.30;88.54;101490.87;1608256;87;22359;-76
2021/01/16 00:28:22;;;;;;;13.32;6.97;;;;;;;-2.36;88.74;101471.56;1599869;87;21238;-76
2021/01/16 00:30:48;;;;;;;12.73;6.33;;;;;;;-2.36;88.74;101471.56;1608079;87;21251;-76
2021/01/16 00:33:21;;;;;;;13.03;7.37;;;;;;;-2.23;88.63;101489.11;1609588;87;21186;-76
2021/01/16 00:35:49;;;;;;;11.30;7.12;;;;;;;-2.23;88.63;101489.11;1608016;87;21518;-76
2021/01/16 00:38:16;;;;;;;14.95;7.20;;;;;;;-2.18;88.61;101487.67;1606854;87;21252;-76
2021/01/16 00:40:43;;;;;;;9.23;6.25;;;;;;;-2.18;88.54;101491.48;1607298;87;21218;-76
2021/01/16 00:43:12;;;;;;;11.18;6.30;;;;;;;-2.18;88.55;101488.94;1608937;87;21251;-76
2021/01/16 00:45:45;;;;;;;13.13;6.90;;;;;;;-2.18;88.55;101488.94;1607804;87;21734;-76
2021/01/16 00:48:21;;;;;;;11.25;6.58;;;;;;;-2.12;88.92;101486.71;1641342;85;148914;-76
2021/01/16 00:50:49;;;;;;;11.40;5.87;;;;;;;-2.12;88.72;101484.17;1619352;86;21188;-76
2021/01/16 00:53:16;;;;;;;9.18;5.95;;;;;;;-2.23;88.56;101466.31;1651867;85;21650;-76
2021/01/16 00:55:43;;;;;;;10.72;6.08;;;;;;;-2.23;88.56;101466.31;1645705;85;21457;-76
2021/01/16 00:58:16;;;;;;;10.98;5.97;;;;;;;-2.15;88.52;101481.89;1652529;85;21117;-76
2021/01/16 01:00:45;;;;;;;7.42;5.78;;;;;;;-2.13;88.54;101491.30;1650087;85;21638;-76
2021/01/16 01:03:17;;;;;;;10.25;5.65;;;;;;;-2.13;88.51;101482.44;1649376;85;21243;-76
2021/01/16 01:05:44;;;;;;;9.20;5.78;;;;;;;-2.11;88.60;101478.71;1650561;85;21658;-76
2021/01/16 01:08:10;;;;;;;9.68;6.05;;;;;;;-2.09;88.63;101483.06;1641864;85;21446;-76
2021/01/16 01:10:44;;;;;;;9.03;6.25;;;;;;;-2.09;88.59;101477.13;1650469;85;21122;-76
2021/01/16 01:13:10;;;;;;;8.60;6.17;;;;;;;-2.07;88.63;101477.64;1645773;85;21126;-76
2021/01/16 01:15:38;;;;;;;11.63;6.37;;;;;;;-2.05;88.53;101481.11;1651585;85;21539;-76
2021/01/16 01:18:05;;;;;;;12.33;6.87;;;;;;;-2.04;88.61;101479.05;1645836;85;21156;-76
2021/01/16 01:20:32;;;;;;;11.08;6.17;;;;;;;-2.03;88.61;101479.53;1652290;85;21164;-76
2021/01/16 01:22:59;;;;;;;9.65;6.08;;;;;;;-2.01;88.57;101484.67;1648795;85;21146;-76
2021/01/16 01:25:26;;;;;;;11.15;5.62;;;;;;;-2.02;88.56;101483.80;1651785;85;21098;-76
2021/01/16 01:27:58;;;;;;;9.83;5.97;;;;;;;-2.10;88.59;101471.19;1644909;85;21232;-76
2021/01/16 01:30:27;;;;;;;8.10;6.13;;;;;;;-2.00;88.61;101483.88;1642429;85;21160;-76
2021/01/16 01:32:54;;;;;;;5.95;5.10;;;;;;;-1.97;88.59;101480.62;1673109;85;21129;-76
2021/01/16 01:35:20;;;;;;;8.30;6.03;;;;;;;-1.97;88.61;101486.95;1672390;84;21027;-76
2021/01/16 01:37:51;;;;;;;8.48;5.40;;;;;;;-1.96;88.62;101479.82;1666580;84;21208;-76
2021/01/16 01:40:19;;;;;;;8.65;5.30;;;;;;;-1.97;88.60;101484.02;1669243;84;21509;-76
2021/01/16 01:42:50;;;;;;;8.53;5.72;;;;;;;-1.96;88.61;101484.49;1670135;84;21384;-76
2021/01/16 01:45:18;;;;;;;8.58;5.20;;;;;;;-1.94;88.63;101485.84;1670379;84;21221;-76
2021/01/16 01:47:46;;;;;;;11.60;5.53;;;;;;;-1.95;88.58;101485.36;1667268;85;21188;-76
2021/01/16 01:50:15;;;;;;;9.20;5.55;;;;;;;-1.94;88.61;101489.23;1670955;83;21208;-76
2021/01/16 01:52:41;;;;;;;7.53;4.67;;;;;;;-1.92;88.75;101486.38;1671512;84;21244;-76
2021/01/16 01:55:11;;;;;;;8.90;5.62;;;;;;;-1.89;88.64;101494.13;1669571;85;21252;-76
2021/01/16 01:57:42;;;;;;;6.05;4.35;;;;;;;-1.90;88.62;101488.59;1669786;84;21510;-76
2021/01/16 02:00:10;;;;;;;6.87;4.92;;;;;;;-1.89;88.61;101489.06;1663647;84;21233;-76
2021/01/16 02:02:38;;;;;;;7.03;5.25;;;;;;;-1.90;88.59;101487.72;1671280;84;21231;-76
2021/01/16 02:05:07;;;;;;;7.22;5.30;;;;;;;-2.02;88.51;101463.92;1668394;85;21201;-76
2021/01/16 02:07:39;;;;;;;7.10;5.00;;;;;;;-1.93;88.56;101482.50;1670992;84;21189;-76
2021/01/16 02:10:24;;;;;;;7.10;5.17;;;;;;;-1.94;88.54;101486.70;1671562;85;21192;-76
2021/01/16 02:12:56;;;;;;;8.97;6.17;;;;;;;-1.95;88.54;101486.62;1662399;84;21215;-76
2021/01/16 02:15:48;;;;;;;8.13;5.35;;;;;;;-1.98;88.54;101482.28;1680674;84;21493;-76
2021/01/16 02:18:37;;;;;;;7.05;5.42;;;;;;;-2.00;88.38;101480.94;1611174;86;21738;-76
2021/01/16 02:21:06;;;;;;;8.40;4.62;;;;;;;-1.95;88.64;101480.30;1649079;85;21196;-76
2021/01/16 02:23:48;;;;;;;9.18;5.50;;;;;;;-1.96;88.55;101488.69;1669690;84;21200;-76
2021/01/16 02:26:40;;;;;;;9.98;4.67;;;;;;;-2.01;88.56;101490.61;1670676;84;21227;-76
2021/01/16 02:29:09;;;;;;;5.92;4.60;;;;;;;-2.02;88.56;101492.67;1672779;84;21230;-76
2021/01/16 02:31:58;;;;;;;6.33;5.08;;;;;;;-2.06;88.43;101488.24;1668729;84;22385;-78
2021/01/16 02:34:30;;;;;;;8.50;4.78;;;;;;;-2.07;88.50;101494.50;1644778;84;21224;-77
2021/01/16 02:37:31;;;;;;;9.13;5.12;;;;;;;-2.07;88.50;101494.50;1675498;84;21224;-76
2021/01/16 02:40:18;;;;;;;5.70;4.47;;;;;;;-2.06;88.65;101481.91;1663379;85;21248;-75
2021/01/16 02:43:02;;;;;;;6.95;4.80;;;;;;;-2.06;88.56;101491.17;1674383;84;21245;-75
2021/01/16 02:45:36;;;;;;;6.70;4.65;;;;;;;-2.08;88.56;101495.33;1683447;84;21682;-76
2021/01/16 02:48:24;;;;;;;6.55;4.50;;;;;;;-2.08;88.57;101485.20;1681126;84;21203;-76
2021/01/16 02:50:54;;;;;;;7.42;3.98;;;;;;;-2.08;88.57;101500.40;1671551;84;21699;-76
2021/01/16 02:53:24;;;;;;;3.98;3.58;;;;;;;-2.09;88.52;101502.06;1641882;85;21659;-76
2021/01/16 02:55:51;;;;;;;6.78;4.85;;;;;;;-2.12;88.34;101503.58;1671178;84;21264;-76
2021/01/16 02:58:18;;;;;;;6.08;4.58;;;;;;;-2.14;88.51;101502.23;1665275;85;21232;-76
2021/01/16 03:00:44;;;;;;;;;;;;;;;-2.16;88.50;101501.29;1672479;84;21269;-76
2021/01/16 03:03:11;;;;;;;6.37;4.25;;;;;;;-2.19;88.64;101500.27;1671747;84;20405;-76
2021/01/16 03:05:38;;;;;;;5.92;4.70;;;;;;;-2.19;88.64;101500.27;1671003;85;21192;-76
2021/01/16 03:08:05;;;;;;;5.65;4.08;;;;;;;-2.24;88.56;101491.17;1672189;85;21212;-76
2021/01/16 03:10:33;;;;;;;7.50;4.15;;;;;;;-2.23;88.51;101495.44;1677683;84;21230;-76
2021/01/16 03:12:59;;;;;;;7.60;4.53;;;;;;;-2.27;88.40;101495.22;1673362;84;21128;-76
2021/01/16 03:15:25;;;;;;;4.37;3.75;;;;;;;-2.30;88.49;101496.33;1676287;84;21231;-76
2021/01/16 03:17:57;;;;;;;4.80;3.80;;;;;;;-2.30;88.54;101491.27;1685288;84;21226;-76
2021/01/16 03:20:30;;;;;;;5.60;3.75;;;;;;;-2.31;88.45;101492.92;1675193;84;21184;-77
2021/01/16 03:23:02;;;;;;;8.50;4.25;;;;;;;-2.38;88.40;101481.62;1677107;84;22069;-76
2021/01/16 03:25:31;;;;;;;5.15;4.10;;;;;;;-2.38;88.40;101481.62;1676625;84;21175;-76
2021/01/16 03:27:58;;;;;;;5.60;3.70;;;;;;;-2.48;88.32;101469.69;1673131;84;21165;-76
2021/01/16 03:30:26;;;;;;;6.47;4.70;;;;;;;-2.48;88.32;101469.69;1682316;84;21133;-76
2021/01/16 03:32:53;;;;;;;4.92;4.12;;;;;;;-2.42;88.35;101491.13;1674716;84;21150;-76
2021/01/16 03:35:25;;;;;;;6.50;4.20;;;;;;;-2.42;88.38;101489.86;1684944;84;21442;-76
2021/01/16 03:37:54;;;;;;;7.08;4.22;;;;;;;-2.45;88.30;101498.95;1673787;84;21149;-76
2021/01/16 03:40:20;;;;;;;4.62;3.60;;;;;;;-2.50;88.28;101495.33;1662438;84;21112;-76
2021/01/16 03:42:47;;;;;;;4.40;3.95;;;;;;;-2.50;88.42;101492.80;1677369;84;21121;-76
2021/01/16 03:45:22;;;;;;;6.37;3.95;;;;;;;-2.47;88.48;101491.68;1671551;85;21133;-76
2021/01/16 03:47:50;;;;;;;4.20;3.60;;;;;;;-2.51;88.37;101486.86;1678367;84;21266;-76
2021/01/16 03:50:16;;;;;;;5.25;4.05;;;;;;;-2.55;88.32;101487.89;1674878;84;21149;-76
2021/01/16 03:52:42;;;;;;;5.47;3.80;;;;;;;-2.62;88.34;101489.27;1670921;84;21424;-76
2021/01/16 03:55:11;;;;;;;5.47;4.03;;;;;;;-2.63;88.39;101485.00;1674842;84;28180;-76
2021/01/16 03:57:38;;;;;;;5.95;3.47;;;;;;;-2.62;88.34;101490.54;1669937;84;21573;-76
2021/01/16 04:00:08;;;;;;;4.25;3.37;;;;;;;-2.62;88.34;101490.54;1671427;84;21241;-76
2021/01/16 04:02:34;;;;;;;6.80;3.80;;;;;;;-2.63;88.39;101495.52;1668841;85;21609;-76
2021/01/16 04:05:00;;;;;;;6.10;3.50;;;;;;;-2.63;88.46;101498.92;1672335;84;26825;-76
2021/01/16 04:07:27;;;;;;;7.78;3.95;;;;;;;-2.60;88.49;101490.62;1670767;84;21123;-76
2021/01/16 04:09:56;;;;;;;4.33;3.35;;;;;;;-2.60;88.46;101492.75;1668040;84;21188;-76
2021/01/16 04:12:21;;;;;;;4.92;3.55;;;;;;;-2.68;88.45;101475.91;1669995;85;21207;-76
2021/01/16 04:14:47;;;;;;;5.65;3.42;;;;;;;-2.57;88.49;101480.22;1667525;84;21651;-76
2021/01/16 04:17:13;;;;;;;3.98;3.05;;;;;;;-2.53;88.48;101483.77;1670822;84;21197;-76
2021/01/16 04:19:40;;;;;;;5.00;3.67;;;;;;;-2.54;88.41;101480.38;1672484;84;21214;-76
2021/01/16 04:22:06;;;;;;;3.87;3.30;;;;;;;-2.52;88.45;101482.98;1669705;84;21192;-76
2021/01/16 04:24:32;;;;;;;4.80;3.22;;;;;;;-2.53;88.36;101481.24;1670593;84;21385;-76
2021/01/16 04:26:58;;;;;;;4.08;2.87;;;;;;;-2.54;88.37;101475.31;1679764;84;21218;-76
2021/01/16 04:29:25;;;;;;;4.75;2.58;;;;;;;-2.53;88.34;101472.38;1670917;85;21216;-76
2021/01/16 04:31:51;;;;;;;5.62;2.72;;;;;;;-2.53;88.39;101463.52;1675781;84;22801;-76
2021/01/16 04:34:18;;;;;;;5.00;2.75;;;;;;;-2.56;88.27;101465.50;1672310;84;21614;-76
2021/01/16 04:36:44;;;;;;;4.78;2.55;;;;;;;-2.59;88.21;101465.74;1671604;84;21701;-76
2021/01/16 04:39:10;;;;;;;3.62;2.92;;;;;;;-2.63;88.17;101463.48;1669759;84;21229;-76
2021/01/16 04:41:37;;;;;;;5.45;3.02;;;;;;;-2.62;88.26;101461.83;1669334;84;21221;-76
2021/01/16 04:44:05;;;;;;;6.40;2.80;;;;;;;-2.68;88.16;101459.85;1642987;85;21631;-76
2021/01/16 04:46:31;;;;;;;3.08;2.37;;;;;;;-2.70;88.34;101458.50;1672286;85;21208;-76
2021/01/16 04:49:00;;;;;;;;;;;;;;;-2.70;88.34;101458.50;1675889;84;21238;-76
2021/01/16 04:51:34;;;;;;;3.77;2.55;;;;;;;-2.72;88.17;101460.09;1673439;84;20558;-76
2021/01/16 04:54:02;;;;;;;5.45;2.83;;;;;;;-2.75;88.18;101461.20;1680226;84;21271;-76
2021/01/16 04:56:35;;;;;;;3.47;2.55;;;;;;;-2.70;88.36;101454.71;1652576;85;21244;-76
2021/01/16 04:59:02;;;;;;;3.25;2.75;;;;;;;-2.70;88.36;101454.71;1673403;85;21271;-76
2021/01/16 05:01:29;;;;;;;3.58;2.90;;;;;;;-2.79;88.21;101443.25;1676455;84;21190;-76
2021/01/16 05:03:57;;;;;;;4.65;2.85;;;;;;;-2.74;88.17;101455.34;1672709;84;21245;-76
2021/01/16 05:06:27;;;;;;;3.95;3.30;;;;;;;-2.74;88.22;101459.54;1671690;85;21176;-76
2021/01/16 05:08:55;;;;;;;3.40;2.85;;;;;;;-2.73;88.27;101457.09;1675276;84;21216;-76
2021/01/16 05:12:00;;;;;;;4.20;2.45;;;;;;;-2.77;88.05;101456.84;1674160;84;21205;-76
2021/01/16 05:14:32;;;;;;;3.10;2.65;;;;;;;-2.77;88.05;101456.84;1644832;85;21566;-76
2021/01/16 05:17:00;;;;;;;3.70;2.60;;;;;;;-2.78;88.18;101462.31;1635541;85;21268;-76
2021/01/16 05:19:36;;;;;;;4.75;3.17;;;;;;;-2.81;88.11;101457.48;1637624;85;21230;-75
2021/01/16 05:22:03;;;;;;;3.15;2.25;;;;;;;-2.82;88.15;101457.88;1638196;85;21249;-75
2021/01/16 05:24:30;;;;;;;4.05;2.55;;;;;;;-2.83;88.17;101458.67;1638779;86;21256;-75
2021/01/16 05:27:06;;;;;;;5.30;2.62;;;;;;;-2.86;88.09;101455.98;1643592;85;22126;-76
2021/01/16 05:29:35;;;;;;;2.95;2.45;;;;;;;-2.86;88.16;101444.59;1640213;86;21256;-76
2021/01/16 05:32:05;;;;;;;6.15;3.10;;;;;;;-2.88;88.08;101441.12;1641672;85;21278;-76
2021/01/16 05:34:33;;;;;;;4.00;2.65;;;;;;;-2.88;88.13;101441.12;1638489;85;21284;-76
2021/01/16 05:37:00;;;;;;;3.72;2.87;;;;;;;-2.88;88.13;101441.12;1637538;85;21237;-77
2021/01/16 05:39:29;;;;;;;5.17;3.02;;;;;;;-2.90;88.01;101443.97;1628194;85;21266;-77
2021/01/16 05:42:02;;;;;;;4.75;2.62;;;;;;;-2.92;88.04;101435.42;1635290;85;21282;-76
2021/01/16 05:44:28;;;;;;;5.37;3.00;;;;;;;-2.93;87.98;101442.54;1637496;85;21294;-76
2021/01/16 05:46:56;;;;;;;2.87;2.20;;;;;;;-2.95;88.01;101440.33;1628196;84;21667;-76
2021/01/16 05:49:27;;;;;;;4.90;3.22;;;;;;;-2.98;87.98;101436.38;1673304;84;21177;-77
2021/01/16 05:51:54;;;;;;;3.87;2.92;;;;;;;-3.00;87.97;101436.69;1670646;84;21365;-77
2021/01/16 05:54:20;;;;;;;3.20;2.65;;;;;;;-3.01;88.03;101443.80;1682386;84;21184;-77
2021/01/16 05:56:49;;;;;;;2.67;2.20;;;;;;;-3.01;88.04;101444.67;1675442;84;21254;-76
2021/01/16 05:59:18;;;;;;;3.02;2.20;;;;;;;-3.05;87.99;101436.45;1659333;84;21198;-76
2021/01/16 06:01:51;;;;;;;2.92;2.37;;;;;;;-3.02;88.06;101440.41;1653433;85;21546;-76
2021/01/16 06:04:20;;;;;;;2.10;1.82;;;;;;;-3.03;87.98;101439.93;1677236;84;21861;-76
2021/01/16 06:06:47;;;;;;;3.08;2.42;;;;;;;-3.04;87.92;101434.79;1682953;84;21141;-76
2021/01/16 06:09:17;;;;;;;2.55;2.33;;;;;;;-3.05;87.91;101434.31;1677988;84;21113;-76
2021/01/16 06:11:51;;;;;;;3.20;2.10;;;;;;;-3.03;87.99;101432.34;1682386;84;21114;-76
2021/01/16 06:14:19;;;;;;;3.90;2.47;;;;;;;-3.00;88.17;101426.56;1676169;84;21106;-76
2021/01/16 06:16:54;;;;;;;2.25;2.00;;;;;;;-3.00;88.17;101426.56;1676602;84;21220;-76
2021/01/16 06:19:27;;;;;;;3.35;2.62;;;;;;;-2.99;88.01;101433.37;1671918;84;21153;-76
2021/01/16 06:21:54;;;;;;;3.35;2.40;;;;;;;-2.99;87.92;101434.63;1676867;84;21132;-76
2021/01/16 06:24:23;;;;;;;2.92;2.25;;;;;;;-3.16;87.71;101421.14;1673771;84;21164;-76
2021/01/16 06:26:59;;;;;;;3.60;2.20;;;;;;;-3.10;87.85;101434.47;1658384;84;21121;-76
2021/01/16 06:29:35;;;;;;;3.93;2.50;;;;;;;-3.10;87.85;101434.47;1672914;84;21394;-76
2021/01/16 06:32:08;;;;;;;3.00;2.35;;;;;;;-3.18;87.68;101433.23;1677260;84;21227;-76
2021/01/16 06:34:40;;;;;;;3.05;2.42;;;;;;;-3.22;87.76;101427.14;1657983;85;21244;-76
2021/01/16 06:37:15;;;;;;;3.75;2.52;;;;;;;-3.34;87.80;101402.48;1676345;84;21513;-76
2021/01/16 06:39:47;;;;;;;4.10;2.45;;;;;;;-3.25;87.86;101418.53;1679869;84;21169;-76
2021/01/16 06:42:27;;;;;;;4.58;2.72;;;;;;;-3.26;87.81;101421.84;1676152;84;21444;-77
2021/01/16 06:45:07;;;;;;;4.72;2.87;;;;;;;-3.29;87.75;101421.29;1673037;84;21571;-77
2021/01/16 06:47:35;;;;;;;3.25;2.65;;;;;;;-3.30;87.81;101418.69;1680356;84;21175;-76
2021/01/16 06:50:06;;;;;;;3.62;2.80;;;;;;;-3.32;87.74;101415.20;1672770;84;21225;-76
2021/01/16 06:52:37;;;;;;;6.10;3.08;;;;;;;-3.37;87.69;101422.55;1665861;84;21619;-76
2021/01/16 06:55:07;;;;;;;3.60;2.95;;;;;;;-3.38;87.77;101423.34;1674025;84;21219;-76
2021/01/16 06:57:34;;;;;;;3.47;2.80;;;;;;;-3.39;87.76;101423.73;1677732;84;21212;-76
2021/01/16 07:00:06;;;;;;;7.25;3.15;;;;;;;-3.42;87.73;101409.66;1675314;84;21213;-76
2021/01/16 07:02:35;;;;;;;5.50;3.08;;;;;;;-3.41;87.76;101416.84;1667485;84;21205;-76
2021/01/16 07:05:22;;;;;;;3.45;2.72;;;;;;;-3.41;87.80;101411.40;1673134;84;21245;-76
2021/01/16 07:07:52;;;;;;;4.05;3.02;;;;;;;-3.42;87.77;101408.79;1669944;84;21969;-77
2021/01/16 07:10:22;;;;;;;5.25;3.33;;;;;;;-3.43;87.80;101405.78;1676991;84;21209;-77
2021/01/16 07:12:51;;;;;;;5.67;3.30;;;;;;;-3.44;87.79;101406.18;1671760;84;21713;-77
2021/01/16 07:15:21;;;;;;;4.78;2.75;;;;;;;-3.44;87.73;101402.39;1666219;84;21208;-77
2021/01/16 07:17:49;;;;;;;4.80;3.27;;;;;;;-3.47;87.69;101399.70;1678492;84;21239;-77
2021/01/16 07:20:16;;;;;;;5.05;3.60;;;;;;;-3.51;87.71;101399.06;1662451;84;21209;-77
2021/01/16 07:22:45;;;;;;;6.78;3.22;;;;;;;-3.52;87.69;101397.32;1664408;84;645569;-77
2021/01/16 07:25:15;;;;;;;3.40;2.92;;;;;;;-3.52;87.70;101396.06;1662781;84;21754;-77
2021/01/16 07:27:43;;;;;;;4.85;3.00;;;;;;;-3.53;87.68;101398.50;1669654;84;21239;-77
2021/01/16 07:30:12;;;;;;;5.17;3.58;;;;;;;-3.57;87.60;101400.39;1672072;84;21231;-77
2021/01/16 07:32:45;;;;;;;5.33;3.80;;;;;;;-3.60;87.66;101401.09;1666069;84;21260;-76
2021/01/16 07:35:19;;;;;;;3.98;2.87;;;;;;;-3.62;87.62;101391.69;1672860;84;21211;-76
2021/01/16 07:37:49;;;;;;;3.83;3.40;;;;;;;-3.65;87.58;101382.33;1663703;84;21208;-77
2021/01/16 07:40:19;;;;;;;3.98;3.05;;;;;;;-3.69;87.52;101383.81;1667229;84;21212;-77
2021/01/16 07:42:57;;;;;;;4.72;3.45;;;;;;;-3.72;87.51;101384.05;1677442;84;22443;-77
2021/01/16 07:45:33;;;;;;;4.22;3.30;;;;;;;-3.76;87.46;101385.54;1661150;84;21224;-77
2021/01/16 07:48:03;;;;;;;4.87;3.50;;;;;;;-3.76;87.53;101389.33;1665963;84;21611;-77
2021/01/16 07:50:33;;;;;;;5.12;3.37;;;;;;;-3.78;87.49;101386.24;1677364;83;21220;-77
2021/01/16 07:53:02;;;;;;;5.28;4.12;;;;;;;-3.79;87.53;101380.72;1678545;84;21209;-77
2021/01/16 07:55:45;;;;;;;6.35;3.72;;;;;;;-3.79;87.55;101384.50;1667077;84;21212;-77
2021/01/16 07:58:36;;;;;;;6.47;3.45;;;;;;;-3.77;87.54;101376.61;1664893;84;22114;-77
2021/01/16 08:01:23;;;;;;;3.80;2.83;;;;;;;-3.75;87.60;101368.72;1665922;84;21241;-77
2021/01/16 08:04:34;;;;;;;4.58;3.25;;;;;;;-3.77;87.49;101367.77;1662278;84;21217;-76
2021/01/16 08:07:08;;;;;;;4.65;3.75;;;;;;;-3.80;87.46;101368.47;1669515;84;21249;-76
2021/01/16 08:09:52;;;;;;;6.67;3.72;;;;;;;-3.81;87.46;101363.34;1609582;87;21227;-76
2021/01/16 08:12:24;;;;;;;5.15;3.25;;;;;;;-3.81;87.53;101368.39;1616647;87;21246;-76
2021/01/16 08:14:51;;;;;;;5.05;3.75;;;;;;;-3.77;87.55;101362.32;1618630;87;21300;-76
2021/01/16 08:17:26;;;;;;;4.30;3.45;;;;;;;-3.77;87.47;101372.43;1613236;87;21298;-76
2021/01/16 08:20:27;;;;;;;4.50;3.37;;;;;;;-3.77;87.50;101375.34;1616091;88;21698;-76
2021/01/16 08:22:52;;;;;;;6.95;3.47;;;;;;;-3.80;87.39;101379.84;1612160;87;21646;-76
2021/01/16 08:25:30;;;;;;;6.12;3.70;;;;;;;-3.79;87.50;101380.32;1610750;87;21342;-76
2021/01/16 08:27:59;;;;;;;5.55;3.52;;;;;;;-3.74;87.52;101372.59;1614463;87;21277;-76
2021/01/16 08:30:28;;;;;;;5.28;3.55;;;;;;;-3.73;87.50;101359.17;1615184;87;21180;-76
2021/01/16 08:33:03;;;;;;;5.03;3.65;;;;;;;-3.67;87.54;101354.45;1616695;87;21179;-76
2021/01/16 08:35:34;;;;;;;4.28;3.62;;;;;;;-3.63;87.49;101351.66;1618173;87;21166;-76
2021/01/16 08:38:21;;;;;;;5.12;3.85;;;;;;;-3.57;87.56;101349.45;1616026;87;21854;-76
2021/01/16 08:41:03;;;;;;;6.78;4.55;;;;;;;-3.51;87.55;101340.92;1613062;87;21163;-76
2021/01/16 08:43:39;;;;;;;8.05;4.30;;;;;;;-3.44;87.56;101348.43;1615369;87;21169;-76
2021/01/16 08:46:34;;;;;;;6.25;3.17;;;;;;;-3.37;87.57;101355.15;1628323;84;21888;-76
2021/01/16 08:49:09;;;;;;;5.50;3.83;;;;;;;-3.34;87.41;101351.52;1685663;84;21117;-76
2021/01/16 08:51:44;;;;;;;4.37;3.45;;;;;;;-3.31;87.36;101353.33;1650114;84;21163;-76
2021/01/16 08:54:23;;;;;;;3.80;3.20;;;;;;;-3.30;87.38;101347.88;1676582;84;21145;-76
2021/01/16 08:56:56;;;;;;;3.87;2.90;;;;;;;-3.27;87.35;101355.23;1684579;84;21155;-76
2021/01/16 08:59:30;;;;;;;4.03;3.20;;;;;;;-3.24;87.31;101360.84;1672947;84;21169;-76
2021/01/16 09:02:12;;;;;;;4.42;3.40;;;;;;;-3.24;87.27;101355.39;1669650;84;21117;-76
2021/01/16 09:04:40;;;;;;;3.83;3.30;;;;;;;-3.22;87.32;101347.48;1657930;84;21450;-76
2021/01/16 09:07:22;;;;;;;4.40;3.70;;;;;;;-3.17;87.29;101343.92;1677851;84;21150;-76
2021/01/16 09:09:58;;;;;;;5.22;4.05;;;;;;;-3.17;87.20;101344.80;1670180;84;21563;-76
2021/01/16 09:12:37;;;;;;;6.05;3.62;;;;;;;-3.12;87.33;101345.03;1678048;84;28455;-76
2021/01/16 09:15:22;;;;;;;3.98;3.45;;;;;;;-3.05;87.37;101349.57;1664031;84;21209;-76
2021/01/16 09:18:13;;;;;;;3.77;3.27;;;;;;;-2.98;87.38;101344.03;1661191;83;21747;-77
2021/01/16 09:20:56;;;;;;;4.05;3.12;;;;;;;-2.95;87.24;101335.72;1668683;84;21217;-76
2021/01/16 09:23:26;;;;;;;5.42;3.17;;;;;;;-2.92;87.26;101336.75;1664797;84;21238;-76
2021/01/16 09:26:17;;;;;;;5.17;3.40;;;;;;;-2.90;87.19;101332.63;1666184;84;21260;-77
2021/01/16 09:28:53;;;;;;;5.28;2.90;;;;;;;-2.87;87.23;101328.98;1659798;83;22353;-77
2021/01/16 09:31:41;;;;;;;4.28;3.05;;;;;;;-2.81;87.25;101325.50;1661914;84;21237;-77
2021/01/16 09:34:17;;;;;;;5.83;3.08;;;;;;;-2.73;87.31;101325.88;1655819;83;21208;-76
2021/01/16 09:37:00;;;;;;;;;;;;;;;-2.82;87.20;101288.33;1655604;83;21507;-76
2021/01/16 09:39:30;;;;;;;19.60;11.08;;;;;;;-2.61;87.22;101302.81;1653396;83;20294;-77
2021/01/16 09:42:03;;;;;;;12.05;8.85;;;;;;;-2.53;87.28;101301.09;1649205;83;22025;-77
2021/01/16 09:44:47;;;;;;;23.02;12.18;;;;;;;-2.48;87.23;101300.04;1660608;84;22019;-77
2021/01/16 09:47:31;;;;;;;14.75;9.15;;;;;;;-2.46;87.10;101298.45;1668457;84;21206;-77
2021/01/16 09:50:05;;;;;;;10.55;7.92;;;;;;;-2.42;87.15;101301.20;1653992;83;21208;-76
2021/01/16 09:52:33;;;;;;;11.53;8.03;;;;;;;-2.36;87.15;101302.75;1647036;84;21776;-76
2021/01/16 09:54:59;;;;;;;12.37;8.98;;;;;;;-2.28;87.26;101295.91;1639633;84;21678;-76
2021/01/16 09:57:43;;;;;;;8.70;6.87;;;;;;;-2.25;87.12;101290.59;1650448;84;21525;-76
2021/01/16 10:00:16;;;;;;;6.62;4.33;;;;;;;-2.20;87.12;101288.27;1655032;84;21121;-76
2021/01/16 10:02:46;;;;;;;9.10;5.05;;;;;;;-2.13;87.11;101282.69;1650605;84;21133;-76
2021/01/16 10:05:29;;;;;;;6.33;4.45;;;;;;;-2.12;87.04;101279.36;1664050;84;21129;-76
2021/01/16 10:07:57;;;;;;;4.75;3.33;;;;;;;-2.13;86.95;101274.69;1638862;84;21128;-76
2021/01/16 10:10:24;;;;;;;13.50;9.60;;;;;;;-2.09;87.03;101273.16;1653433;84;21519;-76
2021/01/16 10:13:00;;;;;;;6.08;4.50;;;;;;;-2.09;86.85;101257.56;1647059;84;21575;-76
2021/01/16 10:15:32;;;;;;;4.65;3.62;;;;;;;-2.07;86.81;101248.73;1639448;84;21150;-76
2021/01/16 10:17:58;;;;;;;6.17;4.28;;;;;;;-2.06;86.96;101245.41;1639005;84;21168;-76
2021/01/16 10:20:35;;;;;;;22.42;10.40;;;;;;;-2.05;86.96;101240.41;1642629;84;21132;-76
2021/01/16 10:23:07;;;;;;;75.12;33.85;;;;;;;-2.02;86.93;101234.20;1631967;84;21487;-76
2021/01/16 10:25:43;;;;;;;12.47;7.03;;;;;;;-2.00;86.96;101232.61;1634186;84;21149;-76
2021/01/16 10:28:27;;;;;;;30.17;14.98;;;;;;;-2.00;86.81;101229.20;1653211;84;21530;-76
2021/01/16 10:31:00;;;;;;;27.37;14.28;;;;;;;-1.99;86.92;101219.54;1637727;84;21153;-76
2021/01/16 10:33:39;;;;;;;14.15;7.20;;;;;;;-1.94;86.98;101219.74;1644604;84;21146;-76
2021/01/16 10:36:15;;;;;;;20.62;15.78;;;;;;;-1.92;86.93;101221.95;1654834;84;21146;-76
2021/01/16 10:38:50;;;;;;;6.35;4.65;;;;;;;-1.90;86.98;101215.28;1649030;84;21154;-76
2021/01/16 10:41:20;;;;;;;4.75;4.12;;;;;;;-1.83;87.01;101219.81;1651139;84;21113;-76
2021/01/16 10:43:47;;;;;;;6.37;4.62;;;;;;;-1.84;86.88;101218.08;1640003;85;21583;-76
2021/01/16 10:46:29;;;;;;;5.95;4.03;;;;;;;-1.85;86.86;101209.61;1648253;84;21646;-76
2021/01/16 10:48:50;;;;;;;5.70;4.15;;;;;;;-1.78;87.01;101208.20;1653595;84;21178;-76
2021/01/16 10:51:22;;;;;;;5.97;3.98;;;;;;;-1.72;86.92;101203.40;1665400;84;28212;-76
2021/01/16 10:53:54;;;;;;;6.25;4.70;;;;;;;-1.69;86.90;101201.86;1670943;84;21145;-76
2021/01/16 10:56:26;;;;;;;9.43;7.83;;;;;;;-1.62;87.06;101192.84;1654534;83;21140;-76
2021/01/16 10:59:08;;;;;;;5.42;4.40;;;;;;;-1.56;87.02;101198.15;1657298;84;21160;-76
2021/01/16 11:01:52;;;;;;;5.05;3.72;;;;;;;-1.52;86.95;101194.07;1665611;84;21212;-79
2021/01/16 11:04:26;;;;;;;6.08;4.42;;;;;;;-1.55;86.76;101187.61;1668177;84;22136;-78
2021/01/16 11:06:59;;;;;;;6.58;4.92;;;;;;;-1.57;86.77;101198.12;1660463;83;21703;-77
2021/01/16 11:09:42;;;;;;;5.25;4.25;;;;;;;-1.62;86.72;101185.25;1651875;83;21735;-76
2021/01/16 11:12:09;;;;;;;10.88;8.25;;;;;;;-1.62;86.77;101180.58;1666803;84;21713;-76
2021/01/16 11:14:41;;;;;;;6.55;5.05;;;;;;;-1.65;86.79;101175.38;1668842;83;21199;-77
2021/01/16 11:17:10;;;;;;;6.03;4.28;;;;;;;-1.65;86.82;101171.57;1671060;83;21224;-77
2021/01/16 11:19:46;;;;;;;5.97;4.37;;;;;;;-1.64;86.88;101175.44;1663909;84;21189;-76
2021/01/16 11:22:16;;;;;;;10.10;4.50;;;;;;;-1.59;86.92;101166.76;1662334;84;26599;-76
2021/01/16 11:25:14;;;;;;;5.50;4.35;;;;;;;-1.60;86.74;101163.36;1651279;83;21263;-76
2021/01/16 11:27:48;;;;;;;7.05;5.30;;;;;;;-1.59;86.84;101157.48;1643924;84;22084;-78
2021/01/16 11:30:20;;;;;;;9.00;4.60;;;;;;;-1.56;86.90;101149.97;1651513;84;21035;-79
2021/01/16 11:32:45;;;;;;;6.47;4.53;;;;;;;-1.51;86.89;101151.43;1657434;84;22193;-79
2021/01/16 11:35:14;;;;;;;6.85;4.72;;;;;;;-1.49;86.84;101150.69;1671599;84;21271;-79
2021/01/16 11:37:56;;;;;;;7.60;4.87;;;;;;;-1.46;86.80;101138.53;1656412;84;21661;-79
2021/01/16 11:40:34;;;;;;;5.33;4.42;;;;;;;-1.42;86.83;101136.59;1674592;84;21662;-79
2021/01/16 11:43:10;;;;;;;8.15;5.22;;;;;;;-1.40;86.77;101138.78;1662997;84;21239;-79
2021/01/16 11:45:37;;;;;;;9.43;5.40;;;;;;;-1.39;86.84;101133.78;1661510;83;29460;-80
2021/01/16 11:48:05;;;;;;;10.08;5.80;;;;;;;-1.34;86.88;101131.02;1664174;83;21195;-80